sensor_id;sensor_type;location;lat;lon;timestamp;P1;durP1;ratioP1;P2;durP2;ratioP2
77051;SDS011;65980;44.898;8.602;2023-10-08T00:02:41;48.08;;;27.63;;
77051;SDS011;65980;44.898;8.602;2023-10-08T00:05:46;42.38;;;28.27;;
77051;SDS011;65980;44.898;8.602;2023-10-08T00:08:50;51.13;;;28.75;;
77051;SDS011;65980;44.898;8.602;2023-10-08T00:12:04;45.28;;;28.23;;
77051;SDS011;65980;44.898;8.602;2023-10-08T00:15:08;46.45;;;28.20;;
77051;SDS011;65980;44.898;8.602;2023-10-08T00:18:14;49.00;;;29.02;;
77051;SDS011;65980;44.898;8.602;2023-10-08T00:21:20;48.80;;;29.73;;
77051;SDS011;65980;44.898;8.602;2023-10-08T00:24:31;42.42;;;27.60;;
77051;SDS011;65980;44.898;8.602;2023-10-08T00:27:37;47.78;;;27.90;;
77051;SDS011;65980;44.898;8.602;2023-10-08T00:30:43;47.22;;;27.58;;
77051;SDS011;65980;44.898;8.602;2023-10-08T00:33:49;44.58;;;27.58;;
77051;SDS011;65980;44.898;8.602;2023-10-08T00:36:54;38.47;;;25.17;;
77051;SDS011;65980;44.898;8.602;2023-10-08T00:40:00;43.35;;;26.00;;
77051;SDS011;65980;44.898;8.602;2023-10-08T00:43:08;39.97;;;25.55;;
77051;SDS011;65980;44.898;8.602;2023-10-08T00:46:16;48.22;;;29.48;;
77051;SDS011;65980;44.898;8.602;2023-10-08T00:49:34;49.83;;;28.55;;
77051;SDS011;65980;44.898;8.602;2023-10-08T00:52:44;45.45;;;28.80;;
77051;SDS011;65980;44.898;8.602;2023-10-08T00:59:52;51.10;;;29.17;;
77051;SDS011;65980;44.898;8.602;2023-10-08T01:02:57;46.47;;;27.83;;
77051;SDS011;65980;44.898;8.602;2023-10-08T01:06:05;47.88;;;28.90;;
77051;SDS011;65980;44.898;8.602;2023-10-08T01:09:14;48.67;;;29.27;;
77051;SDS011;65980;44.898;8.602;2023-10-08T01:12:23;52.75;;;29.95;;
77051;SDS011;65980;44.898;8.602;2023-10-08T01:15:34;46.65;;;28.98;;
77051;SDS011;65980;44.898;8.602;2023-10-08T01:18:41;48.53;;;28.55;;
77051;SDS011;65980;44.898;8.602;2023-10-08T01:21:53;51.63;;;30.10;;
77051;SDS011;65980;44.898;8.602;2023-10-08T01:24:57;50.67;;;30.30;;
77051;SDS011;65980;44.898;8.602;2023-10-08T01:28:05;48.38;;;28.70;;
77051;SDS011;65980;44.898;8.602;2023-10-08T01:31:18;53.58;;;30.95;;
77051;SDS011;65980;44.898;8.602;2023-10-08T01:34:22;43.00;;;26.83;;
77051;SDS011;65980;44.898;8.602;2023-10-08T01:37:34;45.40;;;27.55;;
77051;SDS011;65980;44.898;8.602;2023-10-08T01:40:39;45.50;;;28.42;;
77051;SDS011;65980;44.898;8.602;2023-10-08T01:43:46;46.40;;;27.88;;
77051;SDS011;65980;44.898;8.602;2023-10-08T01:46:51;48.08;;;29.15;;
77051;SDS011;65980;44.898;8.602;2023-10-08T01:49:56;50.30;;;29.30;;
77051;SDS011;65980;44.898;8.602;2023-10-08T01:53:11;53.08;;;27.83;;
77051;SDS011;65980;44.898;8.602;2023-10-08T01:56:15;51.58;;;27.90;;
77051;SDS011;65980;44.898;8.602;2023-10-08T01:59:21;46.05;;;28.52;;
77051;SDS011;65980;44.898;8.602;2023-10-08T02:02:25;43.80;;;26.98;;
77051;SDS011;65980;44.898;8.602;2023-10-08T02:05:29;44.45;;;27.40;;
77051;SDS011;65980;44.898;8.602;2023-10-08T02:08:34;47.28;;;26.65;;
77051;SDS011;65980;44.898;8.602;2023-10-08T02:11:45;40.58;;;26.35;;
77051;SDS011;65980;44.898;8.602;2023-10-08T02:15:00;46.47;;;26.55;;
77051;SDS011;65980;44.898;8.602;2023-10-08T02:18:06;43.58;;;25.70;;
77051;SDS011;65980;44.898;8.602;2023-10-08T02:21:11;42.75;;;25.88;;
77051;SDS011;65980;44.898;8.602;2023-10-08T02:24:16;43.00;;;25.38;;
77051;SDS011;65980;44.898;8.602;2023-10-08T02:27:21;44.67;;;26.52;;
77051;SDS011;65980;44.898;8.602;2023-10-08T02:30:26;43.15;;;25.20;;
77051;SDS011;65980;44.898;8.602;2023-10-08T02:33:31;43.15;;;25.65;;
77051;SDS011;65980;44.898;8.602;2023-10-08T02:36:35;39.00;;;24.85;;
77051;SDS011;65980;44.898;8.602;2023-10-08T02:39:40;40.10;;;25.58;;
77051;SDS011;65980;44.898;8.602;2023-10-08T02:42:46;39.40;;;24.48;;
77051;SDS011;65980;44.898;8.602;2023-10-08T02:45:52;37.85;;;24.85;;
77051;SDS011;65980;44.898;8.602;2023-10-08T02:48:57;38.72;;;24.88;;
77051;SDS011;65980;44.898;8.602;2023-10-08T02:52:02;40.95;;;25.17;;
77051;SDS011;65980;44.898;8.602;2023-10-08T02:55:08;44.95;;;26.70;;
77051;SDS011;65980;44.898;8.602;2023-10-08T02:58:23;40.85;;;25.75;;
77051;SDS011;65980;44.898;8.602;2023-10-08T03:01:29;40.80;;;25.58;;
77051;SDS011;65980;44.898;8.602;2023-10-08T03:04:37;38.38;;;25.45;;
77051;SDS011;65980;44.898;8.602;2023-10-08T03:07:43;44.95;;;25.45;;
77051;SDS011;65980;44.898;8.602;2023-10-08T03:10:47;41.05;;;25.42;;
77051;SDS011;65980;44.898;8.602;2023-10-08T03:13:55;42.72;;;25.65;;
77051;SDS011;65980;44.898;8.602;2023-10-08T03:17:00;38.75;;;24.52;;
77051;SDS011;65980;44.898;8.602;2023-10-08T03:20:11;42.28;;;25.67;;
77051;SDS011;65980;44.898;8.602;2023-10-08T03:23:36;39.22;;;25.38;;
77051;SDS011;65980;44.898;8.602;2023-10-08T03:26:41;44.90;;;26.30;;
77051;SDS011;65980;44.898;8.602;2023-10-08T03:29:49;40.30;;;25.23;;
77051;SDS011;65980;44.898;8.602;2023-10-08T03:32:55;43.95;;;24.70;;
77051;SDS011;65980;44.898;8.602;2023-10-08T03:36:03;44.95;;;25.42;;
77051;SDS011;65980;44.898;8.602;2023-10-08T03:39:13;43.33;;;25.50;;
77051;SDS011;65980;44.898;8.602;2023-10-08T03:42:22;39.25;;;25.00;;
77051;SDS011;65980;44.898;8.602;2023-10-08T03:45:27;41.50;;;25.52;;
77051;SDS011;65980;44.898;8.602;2023-10-08T03:48:50;44.33;;;25.05;;
77051;SDS011;65980;44.898;8.602;2023-10-08T03:51:55;41.08;;;25.05;;
77051;SDS011;65980;44.898;8.602;2023-10-08T03:55:01;39.88;;;25.23;;
77051;SDS011;65980;44.898;8.602;2023-10-08T03:58:25;38.92;;;24.48;;
77051;SDS011;65980;44.898;8.602;2023-10-08T04:01:41;43.47;;;25.80;;
77051;SDS011;65980;44.898;8.602;2023-10-08T04:04:46;40.65;;;25.50;;
77051;SDS011;65980;44.898;8.602;2023-10-08T04:08:17;39.95;;;25.52;;
77051;SDS011;65980;44.898;8.602;2023-10-08T04:11:28;42.13;;;25.42;;
77051;SDS011;65980;44.898;8.602;2023-10-08T04:14:36;41.10;;;25.52;;
77051;SDS011;65980;44.898;8.602;2023-10-08T04:17:41;42.90;;;26.05;;
77051;SDS011;65980;44.898;8.602;2023-10-08T04:20:49;42.00;;;25.20;;
77051;SDS011;65980;44.898;8.602;2023-10-08T04:24:08;38.22;;;24.30;;
77051;SDS011;65980;44.898;8.602;2023-10-08T04:27:12;35.92;;;23.83;;
77051;SDS011;65980;44.898;8.602;2023-10-08T04:30:19;36.72;;;23.83;;
77051;SDS011;65980;44.898;8.602;2023-10-08T04:33:25;34.55;;;22.88;;
77051;SDS011;65980;44.898;8.602;2023-10-08T04:36:29;38.90;;;24.25;;
77051;SDS011;65980;44.898;8.602;2023-10-08T04:39:36;35.08;;;22.85;;
77051;SDS011;65980;44.898;8.602;2023-10-08T04:42:43;33.78;;;22.23;;
77051;SDS011;65980;44.898;8.602;2023-10-08T04:45:49;36.80;;;23.00;;
77051;SDS011;65980;44.898;8.602;2023-10-08T04:52:03;38.88;;;23.33;;
77051;SDS011;65980;44.898;8.602;2023-10-08T04:55:22;35.10;;;23.05;;
77051;SDS011;65980;44.898;8.602;2023-10-08T04:58:32;37.20;;;23.85;;
77051;SDS011;65980;44.898;8.602;2023-10-08T05:01:37;35.35;;;21.90;;
77051;SDS011;65980;44.898;8.602;2023-10-08T05:05:05;33.65;;;22.40;;
77051;SDS011;65980;44.898;8.602;2023-10-08T05:08:15;32.92;;;22.40;;
77051;SDS011;65980;44.898;8.602;2023-10-08T05:11:34;31.63;;;22.48;;
77051;SDS011;65980;44.898;8.602;2023-10-08T05:14:57;34.17;;;23.13;;
77051;SDS011;65980;44.898;8.602;2023-10-08T05:18:20;34.60;;;24.48;;
77051;SDS011;65980;44.898;8.602;2023-10-08T05:21:27;30.17;;;21.95;;
77051;SDS011;65980;44.898;8.602;2023-10-08T05:24:45;30.63;;;21.70;;
77051;SDS011;65980;44.898;8.602;2023-10-08T05:28:11;30.80;;;21.10;;
77051;SDS011;65980;44.898;8.602;2023-10-08T05:31:28;31.55;;;22.10;;
77051;SDS011;65980;44.898;8.602;2023-10-08T05:34:45;36.92;;;23.17;;
77051;SDS011;65980;44.898;8.602;2023-10-08T05:38:16;37.10;;;23.52;;
77051;SDS011;65980;44.898;8.602;2023-10-08T05:41:34;32.60;;;21.98;;
77051;SDS011;65980;44.898;8.602;2023-10-08T05:44:55;30.67;;;20.70;;
77051;SDS011;65980;44.898;8.602;2023-10-08T05:48:32;30.33;;;22.13;;
77051;SDS011;65980;44.898;8.602;2023-10-08T05:51:42;33.08;;;21.77;;
77051;SDS011;65980;44.898;8.602;2023-10-08T05:54:50;30.27;;;22.10;;
77051;SDS011;65980;44.898;8.602;2023-10-08T05:58:23;27.98;;;20.70;;
77051;SDS011;65980;44.898;8.602;2023-10-08T06:01:28;26.25;;;20.13;;
77051;SDS011;65980;44.898;8.602;2023-10-08T06:04:44;28.50;;;20.50;;
77051;SDS011;65980;44.898;8.602;2023-10-08T06:08:18;25.10;;;19.67;;
77051;SDS011;65980;44.898;8.602;2023-10-08T06:11:42;30.38;;;21.38;;
77051;SDS011;65980;44.898;8.602;2023-10-08T06:15:00;30.30;;;22.00;;
77051;SDS011;65980;44.898;8.602;2023-10-08T06:18:11;31.20;;;22.58;;
77051;SDS011;65980;44.898;8.602;2023-10-08T06:21:17;32.08;;;23.10;;
77051;SDS011;65980;44.898;8.602;2023-10-08T06:24:23;38.47;;;24.88;;
77051;SDS011;65980;44.898;8.602;2023-10-08T06:27:28;38.00;;;24.48;;
77051;SDS011;65980;44.898;8.602;2023-10-08T06:30:36;34.08;;;23.90;;
77051;SDS011;65980;44.898;8.602;2023-10-08T06:33:44;37.95;;;23.85;;
77051;SDS011;65980;44.898;8.602;2023-10-08T06:36:49;36.15;;;24.30;;
77051;SDS011;65980;44.898;8.602;2023-10-08T06:39:57;40.53;;;27.17;;
77051;SDS011;65980;44.898;8.602;2023-10-08T06:43:01;47.90;;;28.55;;
77051;SDS011;65980;44.898;8.602;2023-10-08T06:46:41;45.53;;;27.00;;
77051;SDS011;65980;44.898;8.602;2023-10-08T06:49:45;47.25;;;29.17;;
77051;SDS011;65980;44.898;8.602;2023-10-08T06:52:50;43.33;;;26.95;;
77051;SDS011;65980;44.898;8.602;2023-10-08T06:55:55;49.42;;;27.38;;
77051;SDS011;65980;44.898;8.602;2023-10-08T06:59:00;41.35;;;26.38;;
77051;SDS011;65980;44.898;8.602;2023-10-08T07:02:05;37.80;;;24.92;;
77051;SDS011;65980;44.898;8.602;2023-10-08T07:05:11;32.17;;;22.48;;
77051;SDS011;65980;44.898;8.602;2023-10-08T07:08:16;33.95;;;22.63;;
77051;SDS011;65980;44.898;8.602;2023-10-08T07:11:22;40.80;;;25.58;;
77051;SDS011;65980;44.898;8.602;2023-10-08T07:14:27;41.08;;;25.13;;
77051;SDS011;65980;44.898;8.602;2023-10-08T07:17:32;49.92;;;28.50;;
77051;SDS011;65980;44.898;8.602;2023-10-08T07:20:45;46.83;;;27.42;;
77051;SDS011;65980;44.898;8.602;2023-10-08T07:23:49;41.55;;;26.52;;
77051;SDS011;65980;44.898;8.602;2023-10-08T07:27:08;42.92;;;26.70;;
77051;SDS011;65980;44.898;8.602;2023-10-08T07:30:13;44.58;;;27.27;;
77051;SDS011;65980;44.898;8.602;2023-10-08T07:33:30;47.42;;;26.80;;
77051;SDS011;65980;44.898;8.602;2023-10-08T07:36:40;44.10;;;27.08;;
77051;SDS011;65980;44.898;8.602;2023-10-08T07:39:44;42.35;;;26.10;;
77051;SDS011;65980;44.898;8.602;2023-10-08T07:42:50;43.53;;;27.42;;
77051;SDS011;65980;44.898;8.602;2023-10-08T07:45:55;50.00;;;27.42;;
77051;SDS011;65980;44.898;8.602;2023-10-08T07:48:59;46.25;;;28.05;;
77051;SDS011;65980;44.898;8.602;2023-10-08T07:52:03;44.97;;;27.88;;
77051;SDS011;65980;44.898;8.602;2023-10-08T07:55:08;46.47;;;27.17;;
77051;SDS011;65980;44.898;8.602;2023-10-08T07:58:13;48.33;;;27.55;;
77051;SDS011;65980;44.898;8.602;2023-10-08T08:01:18;45.47;;;27.15;;
77051;SDS011;65980;44.898;8.602;2023-10-08T08:04:25;42.70;;;26.23;;
77051;SDS011;65980;44.898;8.602;2023-10-08T08:07:37;41.70;;;24.73;;
77051;SDS011;65980;44.898;8.602;2023-10-08T08:10:42;42.63;;;25.30;;
77051;SDS011;65980;44.898;8.602;2023-10-08T08:13:47;42.30;;;24.67;;
77051;SDS011;65980;44.898;8.602;2023-10-08T08:16:51;39.90;;;23.10;;
77051;SDS011;65980;44.898;8.602;2023-10-08T08:19:55;41.17;;;25.65;;
77051;SDS011;65980;44.898;8.602;2023-10-08T08:23:00;40.30;;;23.92;;
77051;SDS011;65980;44.898;8.602;2023-10-08T08:26:10;38.28;;;25.20;;
77051;SDS011;65980;44.898;8.602;2023-10-08T08:29:14;42.42;;;23.25;;
77051;SDS011;65980;44.898;8.602;2023-10-08T08:32:19;44.45;;;22.13;;
77051;SDS011;65980;44.898;8.602;2023-10-08T08:35:25;37.30;;;22.45;;
77051;SDS011;65980;44.898;8.602;2023-10-08T08:38:30;39.97;;;23.73;;
77051;SDS011;65980;44.898;8.602;2023-10-08T08:41:36;39.40;;;22.73;;
77051;SDS011;65980;44.898;8.602;2023-10-08T08:44:43;35.30;;;21.38;;
77051;SDS011;65980;44.898;8.602;2023-10-08T08:47:54;33.33;;;21.38;;
77051;SDS011;65980;44.898;8.602;2023-10-08T08:50:59;39.90;;;22.10;;
77051;SDS011;65980;44.898;8.602;2023-10-08T08:54:05;33.70;;;20.95;;
77051;SDS011;65980;44.898;8.602;2023-10-08T08:57:10;44.83;;;20.75;;
77051;SDS011;65980;44.898;8.602;2023-10-08T09:00:19;30.25;;;19.60;;
77051;SDS011;65980;44.898;8.602;2023-10-08T09:03:24;33.05;;;21.08;;
77051;SDS011;65980;44.898;8.602;2023-10-08T09:06:34;35.03;;;20.60;;
77051;SDS011;65980;44.898;8.602;2023-10-08T09:09:45;32.20;;;21.08;;
77051;SDS011;65980;44.898;8.602;2023-10-08T09:12:49;31.95;;;20.40;;
77051;SDS011;65980;44.898;8.602;2023-10-08T09:16:03;31.05;;;19.75;;
77051;SDS011;65980;44.898;8.602;2023-10-08T09:19:11;32.78;;;19.83;;
77051;SDS011;65980;44.898;8.602;2023-10-08T09:22:20;36.60;;;20.60;;
77051;SDS011;65980;44.898;8.602;2023-10-08T09:25:25;34.25;;;20.27;;
77051;SDS011;65980;44.898;8.602;2023-10-08T09:28:31;28.60;;;19.52;;
77051;SDS011;65980;44.898;8.602;2023-10-08T09:31:38;28.27;;;19.40;;
77051;SDS011;65980;44.898;8.602;2023-10-08T09:34:42;32.97;;;20.52;;
77051;SDS011;65980;44.898;8.602;2023-10-08T09:37:47;32.95;;;19.38;;
77051;SDS011;65980;44.898;8.602;2023-10-08T09:40:52;29.88;;;18.60;;
77051;SDS011;65980;44.898;8.602;2023-10-08T09:43:58;26.92;;;17.75;;
77051;SDS011;65980;44.898;8.602;2023-10-08T09:47:07;31.98;;;17.98;;
77051;SDS011;65980;44.898;8.602;2023-10-08T09:50:14;26.58;;;17.38;;
77051;SDS011;65980;44.898;8.602;2023-10-08T09:53:31;27.90;;;16.13;;
77051;SDS011;65980;44.898;8.602;2023-10-08T09:56:43;23.25;;;15.43;;
77051;SDS011;65980;44.898;8.602;2023-10-08T09:59:48;21.27;;;15.20;;
77051;SDS011;65980;44.898;8.602;2023-10-08T10:02:53;20.90;;;13.57;;
77051;SDS011;65980;44.898;8.602;2023-10-08T10:06:11;19.00;;;12.85;;
77051;SDS011;65980;44.898;8.602;2023-10-08T10:09:20;21.92;;;11.55;;
77051;SDS011;65980;44.898;8.602;2023-10-08T10:12:26;21.67;;;10.80;;
77051;SDS011;65980;44.898;8.602;2023-10-08T10:15:34;15.73;;;10.65;;
77051;SDS011;65980;44.898;8.602;2023-10-08T10:18:44;12.98;;;9.73;;
77051;SDS011;65980;44.898;8.602;2023-10-08T10:21:51;16.23;;;9.15;;
77051;SDS011;65980;44.898;8.602;2023-10-08T10:24:56;14.75;;;8.40;;
77051;SDS011;65980;44.898;8.602;2023-10-08T10:31:18;12.73;;;7.88;;
77051;SDS011;65980;44.898;8.602;2023-10-08T10:34:23;12.88;;;7.57;;
77051;SDS011;65980;44.898;8.602;2023-10-08T10:49:21;11.75;;;7.43;;
77051;SDS011;65980;44.898;8.602;2023-10-08T10:52:26;11.25;;;7.43;;
77051;SDS011;65980;44.898;8.602;2023-10-08T10:55:56;17.27;;;8.55;;
77051;SDS011;65980;44.898;8.602;2023-10-08T10:59:03;10.77;;;7.82;;
77051;SDS011;65980;44.898;8.602;2023-10-08T11:02:21;13.43;;;7.32;;
77051;SDS011;65980;44.898;8.602;2023-10-08T11:05:34;12.00;;;7.22;;
77051;SDS011;65980;44.898;8.602;2023-10-08T11:08:41;12.95;;;7.13;;
77051;SDS011;65980;44.898;8.602;2023-10-08T11:11:49;14.90;;;6.70;;
77051;SDS011;65980;44.898;8.602;2023-10-08T11:14:58;11.20;;;7.03;;
77051;SDS011;65980;44.898;8.602;2023-10-08T11:18:02;16.95;;;6.55;;
77051;SDS011;65980;44.898;8.602;2023-10-08T11:21:12;12.57;;;6.80;;
77051;SDS011;65980;44.898;8.602;2023-10-08T11:24:29;14.77;;;7.00;;
77051;SDS011;65980;44.898;8.602;2023-10-08T11:27:41;16.95;;;6.10;;
77051;SDS011;65980;44.898;8.602;2023-10-08T11:30:49;15.30;;;6.10;;
77051;SDS011;65980;44.898;8.602;2023-10-08T11:34:02;11.98;;;6.68;;
77051;SDS011;65980;44.898;8.602;2023-10-08T11:37:12;12.18;;;6.20;;
77051;SDS011;65980;44.898;8.602;2023-10-08T11:40:29;11.80;;;6.18;;
77051;SDS011;65980;44.898;8.602;2023-10-08T11:43:50;9.73;;;6.00;;
77051;SDS011;65980;44.898;8.602;2023-10-08T11:47:03;12.07;;;5.85;;
77051;SDS011;65980;44.898;8.602;2023-10-08T11:50:15;11.52;;;5.97;;
77051;SDS011;65980;44.898;8.602;2023-10-08T11:53:24;8.93;;;5.70;;
77051;SDS011;65980;44.898;8.602;2023-10-08T11:56:29;14.57;;;5.30;;
77051;SDS011;65980;44.898;8.602;2023-10-08T11:59:33;8.82;;;5.38;;
77051;SDS011;65980;44.898;8.602;2023-10-08T12:02:43;10.00;;;5.30;;
77051;SDS011;65980;44.898;8.602;2023-10-08T12:05:50;7.78;;;5.70;;
77051;SDS011;65980;44.898;8.602;2023-10-08T12:09:02;14.43;;;5.72;;
77051;SDS011;65980;44.898;8.602;2023-10-08T12:12:15;11.50;;;5.47;;
77051;SDS011;65980;44.898;8.602;2023-10-08T12:15:25;14.82;;;5.70;;
77051;SDS011;65980;44.898;8.602;2023-10-08T12:21:46;13.18;;;5.13;;
77051;SDS011;65980;44.898;8.602;2023-10-08T12:24:51;11.32;;;5.15;;
77051;SDS011;65980;44.898;8.602;2023-10-08T12:27:56;8.65;;;5.28;;
77051;SDS011;65980;44.898;8.602;2023-10-08T12:31:00;10.63;;;5.57;;
77051;SDS011;65980;44.898;8.602;2023-10-08T12:34:04;9.40;;;5.35;;
77051;SDS011;65980;44.898;8.602;2023-10-08T12:37:08;7.45;;;5.38;;
77051;SDS011;65980;44.898;8.602;2023-10-08T12:40:12;8.32;;;5.30;;
77051;SDS011;65980;44.898;8.602;2023-10-08T12:43:26;9.23;;;5.45;;
77051;SDS011;65980;44.898;8.602;2023-10-08T12:46:31;11.57;;;4.97;;
77051;SDS011;65980;44.898;8.602;2023-10-08T12:49:37;13.27;;;5.53;;
77051;SDS011;65980;44.898;8.602;2023-10-08T12:52:46;14.07;;;4.80;;
77051;SDS011;65980;44.898;8.602;2023-10-08T12:59:41;9.45;;;4.68;;
77051;SDS011;65980;44.898;8.602;2023-10-08T13:02:49;9.75;;;5.28;;
77051;SDS011;65980;44.898;8.602;2023-10-08T13:05:58;13.35;;;5.07;;
77051;SDS011;65980;44.898;8.602;2023-10-08T13:09:09;9.43;;;5.32;;
77051;SDS011;65980;44.898;8.602;2023-10-08T13:12:16;14.52;;;5.40;;
77051;SDS011;65980;44.898;8.602;2023-10-08T13:15:20;17.95;;;5.00;;
77051;SDS011;65980;44.898;8.602;2023-10-08T13:18:36;15.38;;;6.60;;
77051;SDS011;65980;44.898;8.602;2023-10-08T13:21:41;14.23;;;5.70;;
77051;SDS011;65980;44.898;8.602;2023-10-08T13:24:47;11.48;;;5.00;;
77051;SDS011;65980;44.898;8.602;2023-10-08T13:27:53;12.50;;;4.80;;
77051;SDS011;65980;44.898;8.602;2023-10-08T13:30:58;11.35;;;4.93;;
77051;SDS011;65980;44.898;8.602;2023-10-08T13:34:03;9.70;;;4.95;;
77051;SDS011;65980;44.898;8.602;2023-10-08T13:37:12;10.45;;;5.35;;
77051;SDS011;65980;44.898;8.602;2023-10-08T13:40:19;13.63;;;5.20;;
77051;SDS011;65980;44.898;8.602;2023-10-08T13:43:26;16.38;;;5.07;;
77051;SDS011;65980;44.898;8.602;2023-10-08T13:46:37;11.68;;;4.72;;
77051;SDS011;65980;44.898;8.602;2023-10-08T13:49:47;13.75;;;4.90;;
77051;SDS011;65980;44.898;8.602;2023-10-08T13:52:53;15.13;;;4.50;;
77051;SDS011;65980;44.898;8.602;2023-10-08T13:56:00;14.25;;;4.40;;
77051;SDS011;65980;44.898;8.602;2023-10-08T13:59:05;15.18;;;4.50;;
77051;SDS011;65980;44.898;8.602;2023-10-08T14:02:19;16.00;;;4.85;;
77051;SDS011;65980;44.898;8.602;2023-10-08T14:05:25;28.35;;;4.85;;
77051;SDS011;65980;44.898;8.602;2023-10-08T14:08:31;13.27;;;4.55;;
77051;SDS011;65980;44.898;8.602;2023-10-08T14:11:35;12.90;;;4.70;;
77051;SDS011;65980;44.898;8.602;2023-10-08T14:14:41;13.55;;;4.57;;
77051;SDS011;65980;44.898;8.602;2023-10-08T14:17:48;8.43;;;4.43;;
77051;SDS011;65980;44.898;8.602;2023-10-08T14:20:57;14.95;;;4.32;;
77051;SDS011;65980;44.898;8.602;2023-10-08T14:24:02;9.38;;;4.50;;
77051;SDS011;65980;44.898;8.602;2023-10-08T14:27:07;11.07;;;4.18;;
77051;SDS011;65980;44.898;8.602;2023-10-08T14:30:14;13.52;;;4.72;;
77051;SDS011;65980;44.898;8.602;2023-10-08T14:33:20;9.57;;;4.45;;
77051;SDS011;65980;44.898;8.602;2023-10-08T14:36:28;11.43;;;4.70;;
77051;SDS011;65980;44.898;8.602;2023-10-08T14:39:52;22.15;;;4.43;;
77051;SDS011;65980;44.898;8.602;2023-10-08T14:43:17;11.68;;;4.03;;
77051;SDS011;65980;44.898;8.602;2023-10-08T14:46:24;13.35;;;4.10;;
77051;SDS011;65980;44.898;8.602;2023-10-08T14:49:28;10.65;;;4.65;;
77051;SDS011;65980;44.898;8.602;2023-10-08T14:52:32;12.85;;;4.80;;
77051;SDS011;65980;44.898;8.602;2023-10-08T14:55:39;9.27;;;4.25;;
77051;SDS011;65980;44.898;8.602;2023-10-08T14:58:45;13.77;;;4.57;;
77051;SDS011;65980;44.898;8.602;2023-10-08T15:01:51;13.50;;;4.15;;
77051;SDS011;65980;44.898;8.602;2023-10-08T15:04:55;13.60;;;4.50;;
77051;SDS011;65980;44.898;8.602;2023-10-08T15:08:01;21.25;;;4.75;;
77051;SDS011;65980;44.898;8.602;2023-10-08T15:11:07;11.55;;;3.80;;
77051;SDS011;65980;44.898;8.602;2023-10-08T15:14:14;15.20;;;4.43;;
77051;SDS011;65980;44.898;8.602;2023-10-08T15:17:19;14.63;;;4.32;;
77051;SDS011;65980;44.898;8.602;2023-10-08T15:20:25;12.75;;;4.30;;
77051;SDS011;65980;44.898;8.602;2023-10-08T15:23:30;13.20;;;4.40;;
77051;SDS011;65980;44.898;8.602;2023-10-08T15:26:36;10.85;;;3.90;;
77051;SDS011;65980;44.898;8.602;2023-10-08T15:29:41;17.85;;;4.20;;
77051;SDS011;65980;44.898;8.602;2023-10-08T15:32:45;13.05;;;4.22;;
77051;SDS011;65980;44.898;8.602;2023-10-08T15:35:52;9.57;;;4.55;;
77051;SDS011;65980;44.898;8.602;2023-10-08T15:39:00;13.20;;;4.00;;
77051;SDS011;65980;44.898;8.602;2023-10-08T15:42:05;17.05;;;4.43;;
77051;SDS011;65980;44.898;8.602;2023-10-08T15:45:09;11.15;;;4.28;;
77051;SDS011;65980;44.898;8.602;2023-10-08T15:48:17;23.08;;;4.50;;
77051;SDS011;65980;44.898;8.602;2023-10-08T15:51:23;14.48;;;4.40;;
77051;SDS011;65980;44.898;8.602;2023-10-08T15:54:33;22.30;;;4.68;;
77051;SDS011;65980;44.898;8.602;2023-10-08T15:57:40;14.82;;;4.35;;
77051;SDS011;65980;44.898;8.602;2023-10-08T16:00:44;11.20;;;4.65;;
77051;SDS011;65980;44.898;8.602;2023-10-08T16:03:48;11.68;;;4.40;;
77051;SDS011;65980;44.898;8.602;2023-10-08T16:06:55;9.75;;;3.95;;
77051;SDS011;65980;44.898;8.602;2023-10-08T16:09:59;14.85;;;4.82;;
77051;SDS011;65980;44.898;8.602;2023-10-08T16:13:05;19.80;;;4.63;;
77051;SDS011;65980;44.898;8.602;2023-10-08T16:16:09;16.85;;;5.00;;
77051;SDS011;65980;44.898;8.602;2023-10-08T16:19:15;16.33;;;5.13;;
77051;SDS011;65980;44.898;8.602;2023-10-08T16:22:19;12.35;;;4.25;;
77051;SDS011;65980;44.898;8.602;2023-10-08T16:25:23;16.63;;;4.63;;
77051;SDS011;65980;44.898;8.602;2023-10-08T16:28:27;13.85;;;4.60;;
77051;SDS011;65980;44.898;8.602;2023-10-08T16:31:36;13.45;;;4.10;;
77051;SDS011;65980;44.898;8.602;2023-10-08T16:34:51;14.15;;;4.90;;
77051;SDS011;65980;44.898;8.602;2023-10-08T16:37:59;14.45;;;4.20;;
77051;SDS011;65980;44.898;8.602;2023-10-08T16:41:03;16.55;;;4.53;;
77051;SDS011;65980;44.898;8.602;2023-10-08T16:44:07;17.15;;;4.63;;
77051;SDS011;65980;44.898;8.602;2023-10-08T16:47:11;13.32;;;4.50;;
77051;SDS011;65980;44.898;8.602;2023-10-08T16:50:16;25.00;;;5.03;;
77051;SDS011;65980;44.898;8.602;2023-10-08T16:53:21;23.05;;;5.78;;
77051;SDS011;65980;44.898;8.602;2023-10-08T16:56:25;20.58;;;5.00;;
77051;SDS011;65980;44.898;8.602;2023-10-08T16:59:30;17.75;;;5.47;;
77051;SDS011;65980;44.898;8.602;2023-10-08T17:02:34;16.23;;;5.32;;
77051;SDS011;65980;44.898;8.602;2023-10-08T17:05:38;13.10;;;5.70;;
77051;SDS011;65980;44.898;8.602;2023-10-08T17:08:43;18.83;;;5.55;;
77051;SDS011;65980;44.898;8.602;2023-10-08T17:11:48;20.02;;;6.60;;
77051;SDS011;65980;44.898;8.602;2023-10-08T17:14:52;21.85;;;6.57;;
77051;SDS011;65980;44.898;8.602;2023-10-08T17:17:56;19.35;;;6.10;;
77051;SDS011;65980;44.898;8.602;2023-10-08T17:21:01;22.13;;;7.10;;
77051;SDS011;65980;44.898;8.602;2023-10-08T17:24:05;25.33;;;6.47;;
77051;SDS011;65980;44.898;8.602;2023-10-08T17:27:10;28.83;;;6.55;;
77051;SDS011;65980;44.898;8.602;2023-10-08T17:30:16;35.83;;;6.90;;
77051;SDS011;65980;44.898;8.602;2023-10-08T17:33:25;38.53;;;6.97;;
77051;SDS011;65980;44.898;8.602;2023-10-08T17:36:32;19.95;;;7.78;;
77051;SDS011;65980;44.898;8.602;2023-10-08T17:39:37;25.00;;;9.30;;
77051;SDS011;65980;44.898;8.602;2023-10-08T17:42:43;26.58;;;8.80;;
77051;SDS011;65980;44.898;8.602;2023-10-08T17:45:47;22.35;;;8.02;;
77051;SDS011;65980;44.898;8.602;2023-10-08T17:48:51;26.42;;;9.15;;
77051;SDS011;65980;44.898;8.602;2023-10-08T17:51:57;45.67;;;15.95;;
77051;SDS011;65980;44.898;8.602;2023-10-08T17:55:03;25.88;;;9.43;;
77051;SDS011;65980;44.898;8.602;2023-10-08T17:58:10;22.35;;;7.75;;
77051;SDS011;65980;44.898;8.602;2023-10-08T18:01:17;23.40;;;6.68;;
77051;SDS011;65980;44.898;8.602;2023-10-08T18:04:21;22.45;;;7.55;;
77051;SDS011;65980;44.898;8.602;2023-10-08T18:07:27;36.47;;;12.63;;
77051;SDS011;65980;44.898;8.602;2023-10-08T18:10:31;48.35;;;15.15;;
77051;SDS011;65980;44.898;8.602;2023-10-08T18:13:38;28.17;;;8.35;;
77051;SDS011;65980;44.898;8.602;2023-10-08T18:16:45;21.10;;;7.82;;
77051;SDS011;65980;44.898;8.602;2023-10-08T18:19:50;21.58;;;5.85;;
77051;SDS011;65980;44.898;8.602;2023-10-08T18:22:55;16.42;;;5.13;;
77051;SDS011;65980;44.898;8.602;2023-10-08T18:26:00;20.83;;;6.55;;
77051;SDS011;65980;44.898;8.602;2023-10-08T18:29:05;17.95;;;6.43;;
77051;SDS011;65980;44.898;8.602;2023-10-08T18:32:09;19.08;;;6.32;;
77051;SDS011;65980;44.898;8.602;2023-10-08T18:35:13;24.35;;;5.72;;
77051;SDS011;65980;44.898;8.602;2023-10-08T18:38:17;16.42;;;5.80;;
77051;SDS011;65980;44.898;8.602;2023-10-08T18:41:21;25.67;;;6.45;;
77051;SDS011;65980;44.898;8.602;2023-10-08T18:44:28;22.83;;;7.00;;
77051;SDS011;65980;44.898;8.602;2023-10-08T18:47:32;20.88;;;6.85;;
77051;SDS011;65980;44.898;8.602;2023-10-08T18:50:37;20.75;;;6.95;;
77051;SDS011;65980;44.898;8.602;2023-10-08T18:53:42;24.08;;;6.03;;
77051;SDS011;65980;44.898;8.602;2023-10-08T18:56:47;25.60;;;7.90;;
77051;SDS011;65980;44.898;8.602;2023-10-08T18:59:51;19.83;;;7.25;;